sensor_id;sensor_type;location;lat;lon;timestamp;P1;durP1;ratioP1;P2;durP2;ratioP2
52320;SDS011;38261;54.090;13.382;2023-02-03T00:00:53;2.87;;;1.50;;
52320;SDS011;38261;54.090;13.382;2023-02-03T00:02:15;1.60;;;1.30;;
52320;SDS011;38261;54.090;13.382;2023-02-03T00:03:37;2.50;;;1.77;;
52320;SDS011;38261;54.090;13.382;2023-02-03T00:04:59;4.10;;;1.50;;
52320;SDS011;38261;54.090;13.382;2023-02-03T00:06:22;2.40;;;1.40;;
52320;SDS011;38261;54.090;13.382;2023-02-03T00:07:45;4.33;;;1.47;;
52320;SDS011;38261;54.090;13.382;2023-02-03T00:09:07;4.50;;;1.97;;
52320;SDS011;38261;54.090;13.382;2023-02-03T00:10:29;1.40;;;1.20;;
52320;SDS011;38261;54.090;13.382;2023-02-03T00:11:52;8.03;;;1.70;;
52320;SDS011;38261;54.090;13.382;2023-02-03T00:13:14;3.00;;;1.57;;
52320;SDS011;38261;54.090;13.382;2023-02-03T00:14:36;3.63;;;1.60;;
52320;SDS011;38261;54.090;13.382;2023-02-03T00:15:59;6.13;;;1.97;;
52320;SDS011;38261;54.090;13.382;2023-02-03T00:17:22;7.90;;;1.30;;
52320;SDS011;38261;54.090;13.382;2023-02-03T00:18:44;2.90;;;1.80;;
52320;SDS011;38261;54.090;13.382;2023-02-03T00:20:06;5.77;;;1.77;;
52320;SDS011;38261;54.090;13.382;2023-02-03T00:21:29;5.93;;;1.60;;
52320;SDS011;38261;54.090;13.382;2023-02-03T00:22:51;2.90;;;1.30;;
52320;SDS011;38261;54.090;13.382;2023-02-03T00:24:13;4.10;;;1.50;;
52320;SDS011;38261;54.090;13.382;2023-02-03T00:25:36;2.80;;;1.77;;
52320;SDS011;38261;54.090;13.382;2023-02-03T00:26:59;2.27;;;1.50;;
52320;SDS011;38261;54.090;13.382;2023-02-03T00:28:21;5.27;;;2.00;;
52320;SDS011;38261;54.090;13.382;2023-02-03T00:29:43;1.37;;;1.17;;
52320;SDS011;38261;54.090;13.382;2023-02-03T00:31:05;6.13;;;1.70;;
52320;SDS011;38261;54.090;13.382;2023-02-03T00:32:39;5.07;;;1.80;;
52320;SDS011;38261;54.090;13.382;2023-02-03T00:34:01;7.27;;;2.13;;
52320;SDS011;38261;54.090;13.382;2023-02-03T00:35:23;4.83;;;2.10;;
52320;SDS011;38261;54.090;13.382;2023-02-03T00:36:45;5.93;;;1.43;;
52320;SDS011;38261;54.090;13.382;2023-02-03T00:38:08;5.57;;;1.50;;
52320;SDS011;38261;54.090;13.382;2023-02-03T00:39:30;3.87;;;1.70;;
52320;SDS011;38261;54.090;13.382;2023-02-03T00:40:53;1.93;;;1.20;;
52320;SDS011;38261;54.090;13.382;2023-02-03T00:42:15;4.93;;;1.43;;
52320;SDS011;38261;54.090;13.382;2023-02-03T00:43:37;3.27;;;1.30;;
52320;SDS011;38261;54.090;13.382;2023-02-03T00:44:59;5.87;;;1.30;;
52320;SDS011;38261;54.090;13.382;2023-02-03T00:46:21;6.33;;;1.33;;
52320;SDS011;38261;54.090;13.382;2023-02-03T00:47:43;3.57;;;1.40;;
52320;SDS011;38261;54.090;13.382;2023-02-03T00:49:06;3.73;;;2.40;;
52320;SDS011;38261;54.090;13.382;2023-02-03T00:50:28;3.80;;;1.37;;
52320;SDS011;38261;54.090;13.382;2023-02-03T00:51:50;2.07;;;1.70;;
52320;SDS011;38261;54.090;13.382;2023-02-03T00:53:12;2.70;;;1.40;;
52320;SDS011;38261;54.090;13.382;2023-02-03T00:54:35;9.50;;;1.40;;
52320;SDS011;38261;54.090;13.382;2023-02-03T00:55:57;4.97;;;1.83;;
52320;SDS011;38261;54.090;13.382;2023-02-03T00:57:19;3.40;;;1.30;;
52320;SDS011;38261;54.090;13.382;2023-02-03T00:58:41;6.43;;;1.53;;
52320;SDS011;38261;54.090;13.382;2023-02-03T01:00:03;1.90;;;1.13;;
52320;SDS011;38261;54.090;13.382;2023-02-03T01:01:26;3.60;;;1.50;;
52320;SDS011;38261;54.090;13.382;2023-02-03T01:02:48;3.37;;;1.40;;
52320;SDS011;38261;54.090;13.382;2023-02-03T01:04:10;3.47;;;1.47;;
52320;SDS011;38261;54.090;13.382;2023-02-03T01:05:33;2.50;;;1.83;;
52320;SDS011;38261;54.090;13.382;2023-02-03T01:06:55;4.00;;;1.10;;
52320;SDS011;38261;54.090;13.382;2023-02-03T01:08:18;4.00;;;1.80;;
52320;SDS011;38261;54.090;13.382;2023-02-03T01:09:41;6.50;;;1.30;;
52320;SDS011;38261;54.090;13.382;2023-02-03T01:11:06;1.93;;;1.27;;
52320;SDS011;38261;54.090;13.382;2023-02-03T01:12:30;3.70;;;0.93;;
52320;SDS011;38261;54.090;13.382;2023-02-03T01:13:53;4.53;;;1.53;;
52320;SDS011;38261;54.090;13.382;2023-02-03T01:15:16;5.03;;;1.57;;
52320;SDS011;38261;54.090;13.382;2023-02-03T01:16:39;5.10;;;1.60;;
52320;SDS011;38261;54.090;13.382;2023-02-03T01:18:01;4.00;;;1.27;;
52320;SDS011;38261;54.090;13.382;2023-02-03T01:19:23;2.17;;;1.40;;
52320;SDS011;38261;54.090;13.382;2023-02-03T01:20:45;3.00;;;1.23;;
52320;SDS011;38261;54.090;13.382;2023-02-03T01:22:08;2.80;;;1.10;;
52320;SDS011;38261;54.090;13.382;2023-02-03T01:23:30;2.50;;;1.13;;
52320;SDS011;38261;54.090;13.382;2023-02-03T01:24:52;2.90;;;1.17;;
52320;SDS011;38261;54.090;13.382;2023-02-03T01:26:15;3.73;;;1.30;;
52320;SDS011;38261;54.090;13.382;2023-02-03T01:27:40;1.93;;;1.30;;
52320;SDS011;38261;54.090;13.382;2023-02-03T01:29:02;2.03;;;1.10;;
52320;SDS011;38261;54.090;13.382;2023-02-03T01:30:24;4.20;;;1.73;;
52320;SDS011;38261;54.090;13.382;2023-02-03T01:31:47;6.87;;;1.70;;
52320;SDS011;38261;54.090;13.382;2023-02-03T01:33:09;5.17;;;1.20;;
52320;SDS011;38261;54.090;13.382;2023-02-03T01:34:31;3.97;;;1.30;;
52320;SDS011;38261;54.090;13.382;2023-02-03T01:35:53;3.60;;;1.33;;
52320;SDS011;38261;54.090;13.382;2023-02-03T01:37:15;4.93;;;1.33;;
52320;SDS011;38261;54.090;13.382;2023-02-03T01:38:38;2.90;;;1.70;;
52320;SDS011;38261;54.090;13.382;2023-02-03T01:40:00;2.57;;;1.70;;
52320;SDS011;38261;54.090;13.382;2023-02-03T01:41:32;2.90;;;1.30;;
52320;SDS011;38261;54.090;13.382;2023-02-03T01:42:56;1.87;;;1.20;;
52320;SDS011;38261;54.090;13.382;2023-02-03T01:48:01;2.30;;;1.40;;
52320;SDS011;38261;54.090;13.382;2023-02-03T01:49:26;4.03;;;1.80;;
52320;SDS011;38261;54.090;13.382;2023-02-03T01:50:53;4.43;;;1.43;;
52320;SDS011;38261;54.090;13.382;2023-02-03T01:52:15;5.73;;;1.50;;
52320;SDS011;38261;54.090;13.382;2023-02-03T01:53:38;7.90;;;1.37;;
52320;SDS011;38261;54.090;13.382;2023-02-03T01:55:01;7.50;;;1.40;;
52320;SDS011;38261;54.090;13.382;2023-02-03T01:56:29;4.27;;;1.53;;
52320;SDS011;38261;54.090;13.382;2023-02-03T01:58:00;6.83;;;1.60;;
52320;SDS011;38261;54.090;13.382;2023-02-03T01:59:29;4.80;;;1.50;;
52320;SDS011;38261;54.090;13.382;2023-02-03T02:00:54;3.67;;;1.60;;
52320;SDS011;38261;54.090;13.382;2023-02-03T02:02:18;5.20;;;1.70;;
52320;SDS011;38261;54.090;13.382;2023-02-03T02:03:48;3.43;;;1.50;;
52320;SDS011;38261;54.090;13.382;2023-02-03T02:05:19;4.93;;;1.50;;
52320;SDS011;38261;54.090;13.382;2023-02-03T02:06:50;6.63;;;1.43;;
52320;SDS011;38261;54.090;13.382;2023-02-03T02:08:12;3.10;;;1.93;;
52320;SDS011;38261;54.090;13.382;2023-02-03T02:09:36;2.50;;;1.30;;
52320;SDS011;38261;54.090;13.382;2023-02-03T02:10:59;3.73;;;1.67;;
52320;SDS011;38261;54.090;13.382;2023-02-03T02:12:21;7.50;;;2.00;;
52320;SDS011;38261;54.090;13.382;2023-02-03T02:13:43;3.63;;;1.77;;
52320;SDS011;38261;54.090;13.382;2023-02-03T02:15:07;3.73;;;1.60;;
52320;SDS011;38261;54.090;13.382;2023-02-03T02:16:52;7.03;;;1.60;;
52320;SDS011;38261;54.090;13.382;2023-02-03T02:20:37;3.43;;;1.57;;
52320;SDS011;38261;54.090;13.382;2023-02-03T02:25:29;5.80;;;1.93;;
52320;SDS011;38261;54.090;13.382;2023-02-03T02:31:53;6.00;;;1.70;;
52320;SDS011;38261;54.090;13.382;2023-02-03T02:34:21;7.03;;;2.00;;
52320;SDS011;38261;54.090;13.382;2023-02-03T02:35:57;4.87;;;1.77;;
52320;SDS011;38261;54.090;13.382;2023-02-03T02:37:49;4.23;;;2.00;;
52320;SDS011;38261;54.090;13.382;2023-02-03T02:39:28;8.10;;;2.43;;
52320;SDS011;38261;54.090;13.382;2023-02-03T02:42:32;5.17;;;2.10;;
52320;SDS011;38261;54.090;13.382;2023-02-03T02:44:06;4.47;;;2.20;;
52320;SDS011;38261;54.090;13.382;2023-02-03T02:45:51;3.13;;;1.43;;
52320;SDS011;38261;54.090;13.382;2023-02-03T02:47:43;3.03;;;2.20;;
52320;SDS011;38261;54.090;13.382;2023-02-03T02:49:13;3.27;;;1.77;;
52320;SDS011;38261;54.090;13.382;2023-02-03T02:50:40;3.60;;;1.77;;
52320;SDS011;38261;54.090;13.382;2023-02-03T02:52:05;2.07;;;1.87;;
52320;SDS011;38261;54.090;13.382;2023-02-03T02:53:31;3.93;;;1.70;;
52320;SDS011;38261;54.090;13.382;2023-02-03T02:55:01;2.80;;;1.57;;
52320;SDS011;38261;54.090;13.382;2023-02-03T02:56:28;5.03;;;2.17;;
52320;SDS011;38261;54.090;13.382;2023-02-03T02:57:54;4.33;;;1.90;;
52320;SDS011;38261;54.090;13.382;2023-02-03T02:59:22;4.13;;;1.90;;
52320;SDS011;38261;54.090;13.382;2023-02-03T03:00:45;4.27;;;1.90;;
52320;SDS011;38261;54.090;13.382;2023-02-03T03:02:07;4.40;;;1.97;;
52320;SDS011;38261;54.090;13.382;2023-02-03T03:03:32;2.53;;;1.43;;
52320;SDS011;38261;54.090;13.382;2023-02-03T03:04:54;2.87;;;1.50;;
52320;SDS011;38261;54.090;13.382;2023-02-03T03:06:18;4.70;;;1.70;;
52320;SDS011;38261;54.090;13.382;2023-02-03T03:07:54;2.77;;;1.53;;
52320;SDS011;38261;54.090;13.382;2023-02-03T03:09:20;2.97;;;1.80;;
52320;SDS011;38261;54.090;13.382;2023-02-03T03:10:47;2.37;;;1.50;;
52320;SDS011;38261;54.090;13.382;2023-02-03T03:12:16;2.20;;;1.30;;
52320;SDS011;38261;54.090;13.382;2023-02-03T03:13:51;1.63;;;1.33;;
52320;SDS011;38261;54.090;13.382;2023-02-03T03:15:16;2.23;;;1.67;;
52320;SDS011;38261;54.090;13.382;2023-02-03T03:16:43;1.40;;;1.10;;
52320;SDS011;38261;54.090;13.382;2023-02-03T03:18:45;2.60;;;1.23;;
52320;SDS011;38261;54.090;13.382;2023-02-03T03:20:05;2.20;;;1.43;;
52320;SDS011;38261;54.090;13.382;2023-02-03T03:21:36;6.20;;;1.20;;
52320;SDS011;38261;54.090;13.382;2023-02-03T03:23:10;5.90;;;1.80;;
52320;SDS011;38261;54.090;13.382;2023-02-03T03:24:39;1.20;;;1.10;;
52320;SDS011;38261;54.090;13.382;2023-02-03T03:26:25;2.10;;;1.20;;
52320;SDS011;38261;54.090;13.382;2023-02-03T03:28:00;2.17;;;1.50;;
52320;SDS011;38261;54.090;13.382;2023-02-03T03:29:26;1.33;;;1.23;;
52320;SDS011;38261;54.090;13.382;2023-02-03T03:30:51;1.90;;;1.30;;
52320;SDS011;38261;54.090;13.382;2023-02-03T03:32:14;1.50;;;1.40;;
52320;SDS011;38261;54.090;13.382;2023-02-03T03:33:36;1.63;;;1.50;;
52320;SDS011;38261;54.090;13.382;2023-02-03T03:34:59;1.40;;;1.20;;
52320;SDS011;38261;54.090;13.382;2023-02-03T03:36:27;1.43;;;1.33;;
52320;SDS011;38261;54.090;13.382;2023-02-03T03:38:02;1.20;;;1.10;;
52320;SDS011;38261;54.090;13.382;2023-02-03T03:41:05;1.87;;;1.27;;
52320;SDS011;38261;54.090;13.382;2023-02-03T03:44:04;3.57;;;1.30;;
52320;SDS011;38261;54.090;13.382;2023-02-03T03:47:09;1.43;;;1.20;;
52320;SDS011;38261;54.090;13.382;2023-02-03T03:48:39;1.20;;;1.10;;
52320;SDS011;38261;54.090;13.382;2023-02-03T03:50:32;1.10;;;1.00;;
52320;SDS011;38261;54.090;13.382;2023-02-03T03:52:00;2.90;;;1.10;;
52320;SDS011;38261;54.090;13.382;2023-02-03T03:53:25;1.47;;;1.30;;
52320;SDS011;38261;54.090;13.382;2023-02-03T03:54:50;2.93;;;1.20;;
52320;SDS011;38261;54.090;13.382;2023-02-03T03:56:16;1.40;;;1.30;;
52320;SDS011;38261;54.090;13.382;2023-02-03T03:57:44;1.30;;;1.20;;
52320;SDS011;38261;54.090;13.382;2023-02-03T03:59:15;1.87;;;1.17;;
52320;SDS011;38261;54.090;13.382;2023-02-03T04:00:42;1.33;;;1.23;;
52320;SDS011;38261;54.090;13.382;2023-02-03T04:02:06;5.20;;;1.40;;
52320;SDS011;38261;54.090;13.382;2023-02-03T04:03:30;1.13;;;1.03;;
52320;SDS011;38261;54.090;13.382;2023-02-03T04:04:58;1.00;;;1.00;;
52320;SDS011;38261;54.090;13.382;2023-02-03T04:06:22;1.83;;;0.97;;
52320;SDS011;38261;54.090;13.382;2023-02-03T04:07:45;1.30;;;1.20;;
52320;SDS011;38261;54.090;13.382;2023-02-03T04:09:07;7.20;;;1.97;;
52320;SDS011;38261;54.090;13.382;2023-02-03T04:10:30;1.57;;;1.40;;
52320;SDS011;38261;54.090;13.382;2023-02-03T04:11:54;1.80;;;1.70;;
52320;SDS011;38261;54.090;13.382;2023-02-03T04:13:22;2.20;;;1.00;;
52320;SDS011;38261;54.090;13.382;2023-02-03T04:14:44;1.27;;;1.17;;
52320;SDS011;38261;54.090;13.382;2023-02-03T04:16:07;1.10;;;1.00;;
52320;SDS011;38261;54.090;13.382;2023-02-03T04:17:29;1.80;;;1.10;;
52320;SDS011;38261;54.090;13.382;2023-02-03T04:18:54;1.40;;;1.30;;
52320;SDS011;38261;54.090;13.382;2023-02-03T04:20:16;1.30;;;1.20;;
52320;SDS011;38261;54.090;13.382;2023-02-03T04:21:39;1.37;;;0.97;;
52320;SDS011;38261;54.090;13.382;2023-02-03T04:23:01;1.30;;;1.00;;
52320;SDS011;38261;54.090;13.382;2023-02-03T04:24:23;1.47;;;1.10;;
52320;SDS011;38261;54.090;13.382;2023-02-03T04:25:45;1.47;;;1.23;;
52320;SDS011;38261;54.090;13.382;2023-02-03T04:27:07;1.20;;;1.10;;
52320;SDS011;38261;54.090;13.382;2023-02-03T04:28:29;1.87;;;1.07;;
52320;SDS011;38261;54.090;13.382;2023-02-03T04:29:51;2.30;;;1.20;;
52320;SDS011;38261;54.090;13.382;2023-02-03T04:31:13;1.70;;;0.93;;
52320;SDS011;38261;54.090;13.382;2023-02-03T04:32:36;1.33;;;1.23;;
52320;SDS011;38261;54.090;13.382;2023-02-03T04:33:58;1.23;;;1.13;;
52320;SDS011;38261;54.090;13.382;2023-02-03T04:35:20;1.20;;;1.10;;
52320;SDS011;38261;54.090;13.382;2023-02-03T04:36:42;1.00;;;1.00;;
52320;SDS011;38261;54.090;13.382;2023-02-03T04:38:04;1.40;;;1.20;;
52320;SDS011;38261;54.090;13.382;2023-02-03T04:39:26;3.60;;;1.50;;
52320;SDS011;38261;54.090;13.382;2023-02-03T04:40:48;2.70;;;1.30;;
52320;SDS011;38261;54.090;13.382;2023-02-03T04:42:10;1.77;;;1.17;;
52320;SDS011;38261;54.090;13.382;2023-02-03T04:43:32;1.00;;;1.00;;
52320;SDS011;38261;54.090;13.382;2023-02-03T04:44:54;1.10;;;1.00;;
52320;SDS011;38261;54.090;13.382;2023-02-03T04:46:16;1.23;;;1.13;;
52320;SDS011;38261;54.090;13.382;2023-02-03T04:47:39;1.17;;;1.07;;
52320;SDS011;38261;54.090;13.382;2023-02-03T04:49:01;1.03;;;0.80;;
52320;SDS011;38261;54.090;13.382;2023-02-03T04:50:23;1.20;;;1.00;;
52320;SDS011;38261;54.090;13.382;2023-02-03T04:51:49;1.53;;;1.40;;
52320;SDS011;38261;54.090;13.382;2023-02-03T04:53:11;1.27;;;1.17;;
52320;SDS011;38261;54.090;13.382;2023-02-03T04:54:36;1.27;;;1.17;;
52320;SDS011;38261;54.090;13.382;2023-02-03T04:55:59;1.63;;;1.10;;
52320;SDS011;38261;54.090;13.382;2023-02-03T04:57:21;1.47;;;1.20;;
52320;SDS011;38261;54.090;13.382;2023-02-03T04:58:43;1.17;;;1.10;;
52320;SDS011;38261;54.090;13.382;2023-02-03T05:00:06;1.30;;;1.20;;
52320;SDS011;38261;54.090;13.382;2023-02-03T05:01:28;1.23;;;1.13;;
52320;SDS011;38261;54.090;13.382;2023-02-03T05:02:50;1.20;;;1.10;;
52320;SDS011;38261;54.090;13.382;2023-02-03T05:04:12;1.70;;;1.20;;
52320;SDS011;38261;54.090;13.382;2023-02-03T05:05:35;1.07;;;1.03;;
52320;SDS011;38261;54.090;13.382;2023-02-03T05:06:57;1.43;;;1.33;;
52320;SDS011;38261;54.090;13.382;2023-02-03T05:08:19;1.27;;;1.17;;
52320;SDS011;38261;54.090;13.382;2023-02-03T05:09:41;2.03;;;1.20;;
52320;SDS011;38261;54.090;13.382;2023-02-03T05:11:03;1.40;;;1.13;;
52320;SDS011;38261;54.090;13.382;2023-02-03T05:12:27;1.10;;;1.00;;
52320;SDS011;38261;54.090;13.382;2023-02-03T05:13:49;1.30;;;1.20;;
52320;SDS011;38261;54.090;13.382;2023-02-03T05:15:11;1.40;;;1.30;;
52320;SDS011;38261;54.090;13.382;2023-02-03T05:16:33;1.60;;;1.20;;
52320;SDS011;38261;54.090;13.382;2023-02-03T05:17:55;1.60;;;1.50;;
52320;SDS011;38261;54.090;13.382;2023-02-03T05:19:17;1.30;;;1.20;;
52320;SDS011;38261;54.090;13.382;2023-02-03T05:20:39;1.40;;;1.30;;
52320;SDS011;38261;54.090;13.382;2023-02-03T05:22:02;1.20;;;1.10;;
52320;SDS011;38261;54.090;13.382;2023-02-03T05:23:24;1.13;;;1.03;;
52320;SDS011;38261;54.090;13.382;2023-02-03T05:24:46;2.70;;;1.30;;
52320;SDS011;38261;54.090;13.382;2023-02-03T05:26:08;1.70;;;1.60;;
52320;SDS011;38261;54.090;13.382;2023-02-03T05:27:30;4.00;;;1.00;;
52320;SDS011;38261;54.090;13.382;2023-02-03T05:28:52;1.53;;;1.43;;
52320;SDS011;38261;54.090;13.382;2023-02-03T05:30:17;4.40;;;1.83;;
52320;SDS011;38261;54.090;13.382;2023-02-03T05:31:40;1.70;;;1.60;;
52320;SDS011;38261;54.090;13.382;2023-02-03T05:33:02;1.50;;;1.40;;
52320;SDS011;38261;54.090;13.382;2023-02-03T05:34:24;1.60;;;1.50;;
52320;SDS011;38261;54.090;13.382;2023-02-03T05:35:46;1.70;;;1.60;;
52320;SDS011;38261;54.090;13.382;2023-02-03T05:37:08;2.00;;;1.90;;
52320;SDS011;38261;54.090;13.382;2023-02-03T05:38:30;3.03;;;2.37;;
52320;SDS011;38261;54.090;13.382;2023-02-03T05:39:52;1.97;;;1.80;;
52320;SDS011;38261;54.090;13.382;2023-02-03T05:41:14;2.60;;;2.10;;
52320;SDS011;38261;54.090;13.382;2023-02-03T05:42:55;2.10;;;1.97;;
52320;SDS011;38261;54.090;13.382;2023-02-03T05:44:21;2.67;;;2.47;;
52320;SDS011;38261;54.090;13.382;2023-02-03T05:45:45;3.00;;;2.37;;
52320;SDS011;38261;54.090;13.382;2023-02-03T05:47:07;3.00;;;2.67;;
52320;SDS011;38261;54.090;13.382;2023-02-03T05:48:29;2.60;;;2.20;;
52320;SDS011;38261;54.090;13.382;2023-02-03T05:49:51;8.00;;;2.40;;
52320;SDS011;38261;54.090;13.382;2023-02-03T05:51:13;2.73;;;2.53;;
52320;SDS011;38261;54.090;13.382;2023-02-03T05:52:36;5.10;;;3.10;;
52320;SDS011;38261;54.090;13.382;2023-02-03T05:53:58;3.03;;;2.73;;
52320;SDS011;38261;54.090;13.382;2023-02-03T05:55:20;4.63;;;3.47;;
52320;SDS011;38261;54.090;13.382;2023-02-03T05:56:42;4.50;;;2.90;;
52320;SDS011;38261;54.090;13.382;2023-02-03T05:58:04;2.93;;;2.73;;
52320;SDS011;38261;54.090;13.382;2023-02-03T05:59:26;4.17;;;3.23;;
52320;SDS011;38261;54.090;13.382;2023-02-03T06:00:48;3.40;;;3.07;;
52320;SDS011;38261;54.090;13.382;2023-02-03T06:02:10;4.97;;;3.73;;
52320;SDS011;38261;54.090;13.382;2023-02-03T06:03:32;5.17;;;3.40;;
52320;SDS011;38261;54.090;13.382;2023-02-03T06:04:55;6.47;;;3.43;;
52320;SDS011;38261;54.090;13.382;2023-02-03T06:06:17;3.87;;;2.90;;
52320;SDS011;38261;54.090;13.382;2023-02-03T06:07:39;3.40;;;2.93;;
52320;SDS011;38261;54.090;13.382;2023-02-03T06:09:02;3.53;;;3.20;;
52320;SDS011;38261;54.090;13.382;2023-02-03T06:10:26;5.03;;;3.37;;
52320;SDS011;38261;54.090;13.382;2023-02-03T06:11:48;4.20;;;3.20;;
52320;SDS011;38261;54.090;13.382;2023-02-03T06:13:12;5.70;;;3.20;;
52320;SDS011;38261;54.090;13.382;2023-02-03T06:14:35;4.70;;;3.60;;
52320;SDS011;38261;54.090;13.382;2023-02-03T06:15:57;3.47;;;2.80;;
52320;SDS011;38261;54.090;13.382;2023-02-03T06:17:20;3.20;;;2.90;;
52320;SDS011;38261;54.090;13.382;2023-02-03T06:18:42;4.60;;;2.90;;
52320;SDS011;38261;54.090;13.382;2023-02-03T06:20:04;3.50;;;2.67;;
52320;SDS011;38261;54.090;13.382;2023-02-03T06:21:28;4.53;;;3.07;;
52320;SDS011;38261;54.090;13.382;2023-02-03T06:22:50;3.53;;;2.73;;
52320;SDS011;38261;54.090;13.382;2023-02-03T06:24:12;6.30;;;3.00;;
52320;SDS011;38261;54.090;13.382;2023-02-03T06:25:34;4.40;;;2.80;;
52320;SDS011;38261;54.090;13.382;2023-02-03T06:26:56;3.77;;;3.20;;
52320;SDS011;38261;54.090;13.382;2023-02-03T06:28:18;3.33;;;2.93;;
52320;SDS011;38261;54.090;13.382;2023-02-03T06:29:41;4.33;;;2.90;;
52320;SDS011;38261;54.090;13.382;2023-02-03T06:31:03;3.90;;;3.00;;
52320;SDS011;38261;54.090;13.382;2023-02-03T06:32:26;3.07;;;2.73;;
52320;SDS011;38261;54.090;13.382;2023-02-03T06:33:48;2.70;;;2.50;;
52320;SDS011;38261;54.090;13.382;2023-02-03T06:35:10;3.10;;;2.83;;
52320;SDS011;38261;54.090;13.382;2023-02-03T06:36:32;3.70;;;2.90;;
52320;SDS011;38261;54.090;13.382;2023-02-03T06:37:55;4.93;;;3.10;;
52320;SDS011;38261;54.090;13.382;2023-02-03T06:39:17;7.90;;;3.40;;
52320;SDS011;38261;54.090;13.382;2023-02-03T06:40:39;3.33;;;2.73;;
52320;SDS011;38261;54.090;13.382;2023-02-03T06:42:01;4.97;;;3.00;;
52320;SDS011;38261;54.090;13.382;2023-02-03T06:43:23;3.87;;;2.90;;
52320;SDS011;38261;54.090;13.382;2023-02-03T06:44:45;2.83;;;2.27;;
52320;SDS011;38261;54.090;13.382;2023-02-03T06:46:07;3.60;;;2.80;;
52320;SDS011;38261;54.090;13.382;2023-02-03T06:47:29;6.13;;;3.60;;
52320;SDS011;38261;54.090;13.382;2023-02-03T06:48:52;4.33;;;3.00;;
52320;SDS011;38261;54.090;13.382;2023-02-03T06:50:14;4.27;;;3.20;;
52320;SDS011;38261;54.090;13.382;2023-02-03T06:51:36;3.90;;;2.83;;
52320;SDS011;38261;54.090;13.382;2023-02-03T06:52:58;3.40;;;2.77;;
52320;SDS011;38261;54.090;13.382;2023-02-03T06:54:21;5.70;;;3.33;;
52320;SDS011;38261;54.090;13.382;2023-02-03T06:55:43;4.87;;;2.43;;
52320;SDS011;38261;54.090;13.382;2023-02-03T06:57:05;3.50;;;2.87;;
52320;SDS011;38261;54.090;13.382;2023-02-03T06:58:27;4.60;;;2.60;;
52320;SDS011;38261;54.090;13.382;2023-02-03T06:59:49;2.87;;;2.57;;
52320;SDS011;38261;54.090;13.382;2023-02-03T07:01:11;5.23;;;2.47;;
52320;SDS011;38261;54.090;13.382;2023-02-03T07:02:34;3.10;;;2.53;;
52320;SDS011;38261;54.090;13.382;2023-02-03T07:03:56;8.03;;;2.40;;
52320;SDS011;38261;54.090;13.382;2023-02-03T07:05:19;3.00;;;2.43;;
52320;SDS011;38261;54.090;13.382;2023-02-03T07:06:42;2.20;;;2.00;;
52320;SDS011;38261;54.090;13.382;2023-02-03T07:08:04;2.97;;;2.20;;
52320;SDS011;38261;54.090;13.382;2023-02-03T07:09:26;5.17;;;1.87;;
52320;SDS011;38261;54.090;13.382;2023-02-03T07:10:52;3.87;;;2.33;;
52320;SDS011;38261;54.090;13.382;2023-02-03T07:12:16;5.50;;;1.70;;
52320;SDS011;38261;54.090;13.382;2023-02-03T07:13:38;2.33;;;1.70;;
52320;SDS011;38261;54.090;13.382;2023-02-03T07:15:00;1.77;;;1.60;;
52320;SDS011;38261;54.090;13.382;2023-02-03T07:16:22;1.40;;;1.30;;
52320;SDS011;38261;54.090;13.382;2023-02-03T07:17:46;1.70;;;1.60;;
52320;SDS011;38261;54.090;13.382;2023-02-03T07:19:15;1.63;;;1.30;;
52320;SDS011;38261;54.090;13.382;2023-02-03T07:20:37;1.20;;;1.00;;
52320;SDS011;38261;54.090;13.382;2023-02-03T07:21:59;3.93;;;1.37;;
52320;SDS011;38261;54.090;13.382;2023-02-03T07:23:21;2.10;;;1.40;;
52320;SDS011;38261;54.090;13.382;2023-02-03T07:24:44;1.23;;;1.13;;
52320;SDS011;38261;54.090;13.382;2023-02-03T07:26:06;4.60;;;1.13;;
52320;SDS011;38261;54.090;13.382;2023-02-03T07:27:29;2.60;;;0.90;;
52320;SDS011;38261;54.090;13.382;2023-02-03T07:28:51;2.60;;;1.20;;
52320;SDS011;38261;54.090;13.382;2023-02-03T07:30:13;5.20;;;1.10;;
52320;SDS011;38261;54.090;13.382;2023-02-03T07:31:36;2.03;;;1.40;;
52320;SDS011;38261;54.090;13.382;2023-02-03T07:32:59;2.00;;;1.00;;
52320;SDS011;38261;54.090;13.382;2023-02-03T07:34:21;3.27;;;0.93;;
52320;SDS011;38261;54.090;13.382;2023-02-03T07:35:43;1.93;;;1.20;;
52320;SDS011;38261;54.090;13.382;2023-02-03T07:37:11;1.37;;;0.80;;
52320;SDS011;38261;54.090;13.382;2023-02-03T07:38:33;2.30;;;0.90;;
52320;SDS011;38261;54.090;13.382;2023-02-03T07:39:55;1.40;;;1.03;;
52320;SDS011;38261;54.090;13.382;2023-02-03T07:41:17;1.10;;;0.90;;
52320;SDS011;38261;54.090;13.382;2023-02-03T07:42:43;1.00;;;0.90;;
52320;SDS011;38261;54.090;13.382;2023-02-03T07:44:09;1.70;;;1.17;;
52320;SDS011;38261;54.090;13.382;2023-02-03T07:45:32;1.17;;;0.93;;
52320;SDS011;38261;54.090;13.382;2023-02-03T07:46:54;1.03;;;0.90;;
52320;SDS011;38261;54.090;13.382;2023-02-03T07:48:16;1.10;;;1.00;;
52320;SDS011;38261;54.090;13.382;2023-02-03T07:49:38;2.10;;;0.90;;
52320;SDS011;38261;54.090;13.382;2023-02-03T07:51:01;0.97;;;0.87;;
52320;SDS011;38261;54.090;13.382;2023-02-03T07:52:23;1.37;;;1.07;;
52320;SDS011;38261;54.090;13.382;2023-02-03T07:53:45;1.30;;;0.80;;
52320;SDS011;38261;54.090;13.382;2023-02-03T07:55:07;1.30;;;1.17;;
52320;SDS011;38261;54.090;13.382;2023-02-03T07:56:30;1.63;;;0.87;;
52320;SDS011;38261;54.090;13.382;2023-02-03T07:57:54;1.90;;;1.07;;
52320;SDS011;38261;54.090;13.382;2023-02-03T07:59:17;2.20;;;0.80;;
52320;SDS011;38261;54.090;13.382;2023-02-03T08:00:39;2.70;;;0.77;;
52320;SDS011;38261;54.090;13.382;2023-02-03T08:02:01;0.60;;;0.60;;
52320;SDS011;38261;54.090;13.382;2023-02-03T08:03:23;1.10;;;0.80;;
52320;SDS011;38261;54.090;13.382;2023-02-03T08:04:46;2.03;;;0.80;;
52320;SDS011;38261;54.090;13.382;2023-02-03T08:06:08;0.80;;;0.70;;
52320;SDS011;38261;54.090;13.382;2023-02-03T08:07:30;1.93;;;0.70;;
52320;SDS011;38261;54.090;13.382;2023-02-03T08:08:52;2.00;;;0.80;;
52320;SDS011;38261;54.090;13.382;2023-02-03T08:10:14;1.20;;;0.90;;
52320;SDS011;38261;54.090;13.382;2023-02-03T08:11:38;2.03;;;0.90;;
52320;SDS011;38261;54.090;13.382;2023-02-03T08:13:00;2.00;;;0.87;;
52320;SDS011;38261;54.090;13.382;2023-02-03T08:14:22;0.80;;;0.63;;
52320;SDS011;38261;54.090;13.382;2023-02-03T08:15:44;0.70;;;0.70;;
52320;SDS011;38261;54.090;13.382;2023-02-03T08:17:07;8.20;;;0.80;;
52320;SDS011;38261;54.090;13.382;2023-02-03T08:18:29;0.87;;;0.80;;
52320;SDS011;38261;54.090;13.382;2023-02-03T08:19:53;1.00;;;0.90;;
52320;SDS011;38261;54.090;13.382;2023-02-03T08:21:15;1.67;;;1.13;;
52320;SDS011;38261;54.090;13.382;2023-02-03T08:22:37;1.50;;;0.80;;
52320;SDS011;38261;54.090;13.382;2023-02-03T08:23:59;1.90;;;1.00;;
52320;SDS011;38261;54.090;13.382;2023-02-03T08:25:21;2.13;;;1.00;;
52320;SDS011;38261;54.090;13.382;2023-02-03T08:26:43;1.80;;;0.77;;
52320;SDS011;38261;54.090;13.382;2023-02-03T08:28:05;0.80;;;0.80;;
52320;SDS011;38261;54.090;13.382;2023-02-03T08:29:27;0.73;;;0.73;;
52320;SDS011;38261;54.090;13.382;2023-02-03T08:30:49;2.07;;;0.80;;
52320;SDS011;38261;54.090;13.382;2023-02-03T08:32:17;3.57;;;0.80;;
52320;SDS011;38261;54.090;13.382;2023-02-03T08:33:42;1.10;;;0.87;;
52320;SDS011;38261;54.090;13.382;2023-02-03T08:35:04;2.30;;;0.73;;
52320;SDS011;38261;54.090;13.382;2023-02-03T08:36:27;0.80;;;0.70;;
52320;SDS011;38261;54.090;13.382;2023-02-03T08:37:49;0.90;;;0.70;;
52320;SDS011;38261;54.090;13.382;2023-02-03T08:39:11;1.27;;;0.93;;
52320;SDS011;38261;54.090;13.382;2023-02-03T08:40:33;1.53;;;1.00;;